Time;durP1;ratioP1;P1;durP2;ratioP2;P2;SDS_P1;SDS_P2;PMS_P1;PMS_P2;Temp;Humidity;BMP_temperature;BMP_pressure;BME280_temperature;BME280_humidity;BME280_pressure;Samples;Min_cycle;Max_cycle;Signal;HPM_P1;HPM_P2
2022/06/11 00:01:37;;;;;;;3.38;1.63;;;;;;;19.00;69.27;101409.94;5021135;28;20056;-85
2022/06/11 00:04:09;;;;;;;5.68;1.65;;;;;;;19.01;68.94;101405.53;5004841;28;20060;-85
2022/06/11 00:06:42;;;;;;;7.85;4.00;;;;;;;18.99;69.12;101402.94;5025036;28;20073;-85
2022/06/11 00:09:11;;;;;;;3.03;1.38;;;;;;;18.97;68.99;101403.91;5020611;28;20072;-85
2022/06/11 00:11:38;;;;;;;4.38;1.77;;;;;;;18.95;69.20;101411.88;5002080;28;20056;-84
2022/06/11 00:14:06;;;;;;;5.53;1.60;;;;;;;18.94;69.30;101402.22;5004630;28;20065;-85
2022/06/11 00:16:33;;;;;;;3.78;1.88;;;;;;;18.92;69.59;101406.69;5019714;28;20476;-85
2022/06/11 00:19:01;;;;;;;1.98;1.77;;;;;;;18.92;69.67;101405.81;5007583;28;20056;-85
2022/06/11 00:21:34;;;;;;;1.70;1.13;;;;;;;18.90;69.68;101397.03;4996720;28;20041;-84
2022/06/11 00:24:02;;;;;;;2.47;1.60;;;;;;;18.87;69.66;101402.41;5008493;28;20403;-85
2022/06/11 00:26:30;;;;;;;3.58;1.77;;;;;;;18.84;69.95;101403.38;5014064;28;20053;-85
2022/06/11 00:28:56;;;;;;;3.13;2.33;;;;;;;18.81;69.79;101393.72;5002266;28;20140;-84
2022/06/11 00:31:24;;;;;;;4.53;2.15;;;;;;;18.80;69.83;101391.13;5016541;28;20485;-86
2022/06/11 00:33:51;;;;;;;2.75;2.08;;;;;;;18.77;70.11;101394.75;5012727;28;20077;-85
2022/06/11 00:36:19;;;;;;;2.90;1.80;;;;;;;18.77;69.91;101384.16;5006638;28;20663;-85
2022/06/11 00:38:47;;;;;;;7.35;2.60;;;;;;;18.77;70.00;101385.91;5003567;28;20053;-84
2022/06/11 00:41:20;;;;;;;5.03;1.88;;;;;;;18.76;70.08;101387.72;5013985;28;20038;-85
2022/06/11 00:43:47;;;;;;;3.88;1.45;;;;;;;18.75;69.84;101383.31;5023632;28;20046;-84
2022/06/11 00:46:46;;;;;;;3.50;1.65;;;;;;;18.75;69.94;101387.75;5036448;28;20054;-84
2022/06/11 00:49:21;;;;;;;3.05;1.27;;;;;;;18.73;69.79;101379.81;5018196;28;20058;-85
2022/06/11 00:51:49;;;;;;;1.85;1.45;;;;;;;18.74;69.71;101380.72;5034421;28;20455;-85
2022/06/11 00:54:23;;;;;;;3.10;1.70;;;;;;;18.73;69.81;101371.88;5020958;28;20519;-84
2022/06/11 00:56:58;;;;;;;7.70;2.05;;;;;;;18.71;69.79;101373.72;5020583;28;20178;-85
2022/06/11 00:59:33;;;;;;;8.33;1.93;;;;;;;18.70;69.55;101374.63;5037152;28;20045;-86
2022/06/11 01:02:00;;;;;;;3.40;1.70;;;;;;;18.69;69.43;101364.94;5002157;28;20472;-86
2022/06/11 01:04:39;;;;;;;6.40;1.60;;;;;;;18.68;69.79;101373.78;5004854;28;20060;-85
2022/06/11 01:07:46;;;;;;;3.67;1.95;;;;;;;18.67;69.64;101369.44;5023050;28;20060;-84
2022/06/11 01:10:45;;;;;;;4.03;1.45;;;;;;;18.68;69.69;101371.16;5022607;28;20145;-86
2022/06/11 01:13:30;;;;;;;1.55;1.30;;;;;;;18.65;69.40;101365.94;5018058;28;20041;-84
2022/06/11 01:16:04;;;;;;;6.65;1.88;;;;;;;18.64;69.13;101377.47;5037285;28;20056;-85
2022/06/11 01:19:01;;;;;;;;;;;;;;;18.61;69.14;101369.63;5026740;28;20042;-84
2022/06/11 01:22:01;;;;;;;2.70;1.70;;;;;;;18.58;69.44;101369.72;5017565;28;19928;-85
2022/06/11 01:24:46;;;;;;;1.75;1.20;;;;;;;18.57;69.09;101366.19;5022832;28;20045;-85
2022/06/11 01:27:57;;;;;;;3.55;1.92;;;;;;;18.58;68.96;101364.41;5016576;28;20055;-85
2022/06/11 01:30:29;;;;;;;3.50;2.20;;;;;;;18.58;68.82;101367.06;5034065;28;20042;-85
2022/06/11 01:33:17;;;;;;;4.88;1.17;;;;;;;18.57;68.63;101355.59;5011910;28;20045;-86
2022/06/11 01:36:11;;;;;;;2.53;1.38;;;;;;;18.56;68.51;101361.78;5022610;28;20045;-86
2022/06/11 01:38:44;;;;;;;2.97;1.40;;;;;;;18.55;68.46;101357.44;5018103;28;20041;-85
2022/06/11 01:41:30;;;;;;;4.55;1.92;;;;;;;18.56;68.33;101356.50;5000022;28;20057;-86
2022/06/11 01:44:29;;;;;;;3.17;2.20;;;;;;;18.55;68.50;101353.88;5003975;28;20516;-85
2022/06/11 01:46:58;;;;;;;2.50;1.55;;;;;;;18.53;68.10;101356.59;5025034;28;20056;-84
2022/06/11 01:49:24;;;;;;;1.73;1.40;;;;;;;18.52;68.00;101354.84;5019781;28;20088;-86
2022/06/11 01:52:17;;;;;;;4.32;2.25;;;;;;;18.54;67.94;101349.50;5017713;28;20819;-83
2022/06/11 01:54:56;;;;;;;4.63;1.50;;;;;;;18.50;67.90;101344.31;5015710;28;20053;-84
2022/06/11 01:57:36;;;;;;;4.63;1.63;;;;;;;18.49;67.99;101341.72;5017102;28;20053;-84
2022/06/11 02:00:26;;;;;;;1.73;1.20;;;;;;;18.47;67.91;101341.75;5012869;28;20547;-85
2022/06/11 02:03:35;;;;;;;2.95;1.42;;;;;;;18.45;68.00;101348.88;5033582;28;20049;-85
2022/06/11 02:06:19;;;;;;;5.07;1.50;;;;;;;18.43;68.00;101342.75;5000939;28;20132;-85
2022/06/11 02:09:00;;;;;;;;;;;;;;;18.43;68.23;101344.53;5002041;28;20053;-85
2022/06/11 02:11:39;;;;;;;5.18;1.77;;;;;;;18.41;68.11;101349.00;5016412;28;19964;-83
2022/06/11 02:14:23;;;;;;;3.30;1.70;;;;;;;18.41;68.28;101341.94;5007441;28;20068;-86
2022/06/11 02:17:13;;;;;;;;;;;;;;;18.40;68.33;101345.50;5008436;28;20103;-84
2022/06/11 02:19:47;;;;;;;2.88;1.40;;;;;;;18.39;68.17;101341.09;5022916;28;19929;-85
2022/06/11 02:22:28;;;;;;;5.88;1.30;;;;;;;18.40;68.21;101342.00;5042286;28;20061;-87
2022/06/11 02:25:20;;;;;;;2.03;1.00;;;;;;;18.40;68.48;101334.91;5008598;28;20076;-84
2022/06/11 02:27:50;;;;;;;3.55;1.15;;;;;;;18.40;68.31;101342.84;5023986;28;20038;-84
2022/06/11 02:30:22;;;;;;;3.03;1.27;;;;;;;18.39;68.24;101337.59;5018595;28;20096;-85
2022/06/11 02:32:50;;;;;;;1.15;1.05;;;;;;;18.37;68.69;101336.75;5023160;28;20045;-85
2022/06/11 02:35:43;;;;;;;5.28;1.73;;;;;;;18.35;68.74;101343.00;5035049;28;20188;-85
2022/06/11 02:38:16;;;;;;;3.63;1.50;;;;;;;18.33;68.67;101336.00;5025672;28;20072;-85
2022/06/11 02:40:49;;;;;;;1.58;1.27;;;;;;;18.31;68.83;101341.34;5020036;28;20053;-86
2022/06/11 02:43:16;;;;;;;1.98;1.15;;;;;;;18.31;69.15;101344.00;5008175;28;20056;-85
2022/06/11 02:45:46;;;;;;;3.60;1.65;;;;;;;18.29;68.99;101335.22;5008510;28;20041;-87
2022/06/11 02:48:14;;;;;;;1.60;1.50;;;;;;;18.30;69.13;101336.09;5008277;28;20042;-85
2022/06/11 02:50:43;;;;;;;1.55;1.05;;;;;;;18.29;69.06;101335.22;5016871;28;20139;-86
2022/06/11 02:53:11;;;;;;;6.10;1.40;;;;;;;18.29;69.06;101342.28;5005682;28;20064;-86
2022/06/11 02:55:39;;;;;;;6.95;2.38;;;;;;;18.26;69.20;101339.75;5007653;28;20053;-86
2022/06/11 02:58:08;;;;;;;3.95;1.27;;;;;;;18.24;69.36;101336.25;5022303;28;21263;-83
2022/06/11 03:00:41;;;;;;;0.95;0.90;;;;;;;18.20;69.35;101335.50;5014696;28;21073;-83
2022/06/11 03:03:08;;;;;;;2.75;1.52;;;;;;;18.18;69.69;101337.34;5018634;28;20050;-85
2022/06/11 03:05:38;;;;;;;3.58;1.50;;;;;;;18.13;69.71;101336.59;5025562;28;20060;-85
2022/06/11 03:08:08;;;;;;;3.65;1.80;;;;;;;18.11;69.85;101338.44;5015954;28;20476;-85
2022/06/11 03:10:34;;;;;;;2.42;1.10;;;;;;;18.09;69.89;101345.56;5000294;28;20159;-84
2022/06/11 03:13:01;;;;;;;0.73;0.73;;;;;;;18.08;69.98;101349.09;5001911;28;20054;-85
2022/06/11 03:15:29;;;;;;;3.80;1.00;;;;;;;18.08;70.00;101343.81;5018475;28;20049;-85
2022/06/11 03:18:00;;;;;;;1.90;1.25;;;;;;;18.07;70.35;101350.00;5001221;28;20055;-85
2022/06/11 03:20:31;;;;;;;2.30;1.70;;;;;;;18.06;70.49;101345.66;5012710;28;20077;-85
2022/06/11 03:22:58;;;;;;;1.85;0.80;;;;;;;18.07;70.40;101355.31;4998676;28;20050;-84
2022/06/11 03:25:26;;;;;;;3.38;1.13;;;;;;;18.08;70.21;101351.75;5012801;28;20063;-85
2022/06/11 03:27:53;;;;;;;3.50;1.50;;;;;;;18.10;70.08;101352.59;5020439;28;20041;-85
2022/06/11 03:30:21;;;;;;;3.30;1.40;;;;;;;18.11;69.85;101352.53;5008659;28;20050;-86
2022/06/11 03:32:48;;;;;;;1.45;1.10;;;;;;;18.13;69.94;101352.50;4995796;28;20042;-84
2022/06/11 03:35:16;;;;;;;5.93;1.38;;;;;;;18.14;69.76;101355.09;5021819;28;20069;-84
2022/06/11 03:37:44;;;;;;;7.03;1.58;;;;;;;18.15;69.76;101355.97;5018706;28;20045;-85
2022/06/11 03:40:12;;;;;;;3.03;1.40;;;;;;;18.17;69.67;101355.03;5000514;28;20124;-85
2022/06/11 03:42:40;;;;;;;3.40;1.40;;;;;;;18.19;69.71;101360.28;5002533;28;20049;-84
2022/06/11 03:45:09;;;;;;;2.95;0.93;;;;;;;18.22;69.42;101361.97;5020212;28;20065;-86
2022/06/11 03:47:38;;;;;;;7.85;2.38;;;;;;;18.23;69.44;101358.41;5011650;28;20044;-86
2022/06/11 03:50:20;;;;;;;2.45;1.10;;;;;;;18.25;69.37;101362.75;5016611;28;20046;-83
2022/06/11 03:52:47;;;;;;;3.75;1.50;;;;;;;18.27;69.25;101360.91;5032697;28;20045;-84
2022/06/11 03:55:14;;;;;;;1.50;1.10;;;;;;;18.30;69.19;101359.94;5024464;28;20423;-85
2022/06/11 03:57:41;;;;;;;1.50;0.70;;;;;;;18.33;68.94;101366.03;5010016;28;20053;-85
2022/06/11 04:00:13;;;;;;;2.63;1.20;;;;;;;18.37;69.05;101372.09;5021570;28;20135;-85
2022/06/11 04:02:40;;;;;;;1.92;1.00;;;;;;;18.40;68.67;101374.66;5020683;28;20070;-85
2022/06/11 04:05:09;;;;;;;1.58;1.25;;;;;;;18.44;68.78;101381.59;5003701;28;20056;-84
2022/06/11 04:07:37;;;;;;;3.03;1.38;;;;;;;18.48;68.41;101382.38;5003343;28;20052;-85
2022/06/11 04:10:08;;;;;;;3.92;1.10;;;;;;;18.51;68.42;101376.97;5002156;28;20045;-85
2022/06/11 04:12:35;;;;;;;7.07;1.13;;;;;;;18.54;68.47;101376.91;5023383;28;20092;-84
2022/06/11 04:15:01;;;;;;;4.07;1.00;;;;;;;18.57;68.21;101382.09;5015628;28;20770;-86
2022/06/11 04:17:32;;;;;;;2.30;1.00;;;;;;;18.62;68.14;101387.28;5019732;28;20108;-86
2022/06/11 04:19:59;;;;;;;2.05;1.15;;;;;;;18.66;68.22;101386.25;5023051;28;20054;-85
2022/06/11 04:22:26;;;;;;;3.65;1.67;;;;;;;18.68;67.77;101387.94;5015589;28;20049;-84
2022/06/11 04:24:53;;;;;;;1.92;1.30;;;;;;;18.73;68.00;101390.44;5023553;28;20065;-86
2022/06/11 04:27:22;;;;;;;2.50;0.98;;;;;;;18.78;67.79;101387.66;5020236;28;20054;-86
2022/06/11 04:29:55;;;;;;;1.88;0.82;;;;;;;18.83;67.60;101383.94;5005969;28;20057;-84
2022/06/11 04:32:24;;;;;;;3.33;1.10;;;;;;;18.90;67.58;101389.06;5022284;28;20885;-84
2022/06/11 04:34:52;;;;;;;2.30;1.02;;;;;;;18.95;67.48;101395.97;5007143;28;20053;-85
2022/06/11 04:37:21;;;;;;;3.10;0.80;;;;;;;18.99;67.26;101394.09;5008849;28;20049;-84
2022/06/11 04:39:54;;;;;;;3.75;1.42;;;;;;;19.03;67.18;101398.38;5020032;28;20132;-83
2022/06/11 04:42:25;;;;;;;1.48;0.90;;;;;;;19.06;67.03;101392.97;5016171;28;20075;-85
2022/06/11 04:44:52;;;;;;;4.15;1.48;;;;;;;19.07;66.96;101394.69;5034280;28;20050;-84
2022/06/11 04:47:26;;;;;;;2.88;1.02;;;;;;;19.09;67.08;101397.31;5032475;28;20041;-85
2022/06/11 04:49:56;;;;;;;4.13;1.08;;;;;;;19.11;66.89;101398.13;5009435;28;20091;-88
2022/06/11 04:52:24;;;;;;;2.97;1.27;;;;;;;19.12;67.09;101389.25;5023103;28;20045;-86
2022/06/11 04:54:51;;;;;;;3.95;1.27;;;;;;;19.14;67.06;101396.25;5023787;28;20479;-85
2022/06/11 04:57:20;;;;;;;1.23;0.77;;;;;;;19.19;67.09;101396.09;5006994;28;20370;-84
2022/06/11 04:59:47;;;;;;;1.65;1.17;;;;;;;19.21;66.91;101404.00;5008700;28;20103;-85
2022/06/11 05:02:14;;;;;;;3.40;1.65;;;;;;;19.20;66.88;101405.78;5010864;28;20060;-84
2022/06/11 05:04:41;;;;;;;3.90;2.30;;;;;;;19.23;67.17;101402.16;5020107;28;20041;-85
2022/06/11 05:07:08;;;;;;;1.48;1.23;;;;;;;19.24;67.19;101401.25;5023157;28;20664;-85
2022/06/11 05:09:35;;;;;;;2.05;1.42;;;;;;;19.28;66.93;101410.81;5019044;28;20498;-87
2022/06/11 05:12:02;;;;;;;4.90;2.05;;;;;;;19.30;67.02;101407.22;5023071;28;20133;-85
2022/06/11 05:14:29;;;;;;;0.80;0.80;;;;;;;19.36;66.80;101416.78;5006550;28;20060;-85
2022/06/11 05:16:58;;;;;;;2.03;0.90;;;;;;;19.42;66.81;101410.38;5011518;28;20049;-84
2022/06/11 05:19:27;;;;;;;4.18;1.25;;;;;;;19.50;66.47;101419.81;5025531;28;20054;-83
2022/06/11 05:21:55;;;;;;;2.72;1.40;;;;;;;19.59;66.16;101421.28;5027983;28;20045;-84
2022/06/11 05:24:21;;;;;;;4.15;1.08;;;;;;;19.66;66.03;101417.50;5028477;28;20084;-85
2022/06/11 05:26:56;;;;;;;2.63;1.50;;;;;;;19.74;65.83;101422.53;5025186;28;20045;-84
2022/06/11 05:29:32;;;;;;;3.05;1.20;;;;;;;19.73;65.87;101428.78;5024682;28;20049;-85
2022/06/11 05:31:59;;;;;;;2.85;1.15;;;;;;;19.77;65.90;101421.56;5010549;28;20052;-86
2022/06/11 05:34:28;;;;;;;2.80;1.20;;;;;;;19.78;65.98;101426.81;5025067;28;20118;-84
2022/06/11 05:36:57;;;;;;;1.88;1.10;;;;;;;19.82;66.12;101427.63;5011759;28;20662;-86
2022/06/11 05:39:28;;;;;;;6.75;1.63;;;;;;;19.87;66.04;101436.31;5040908;28;20069;-85
2022/06/11 05:41:55;;;;;;;4.00;1.75;;;;;;;19.93;65.91;101429.88;5026696;28;20500;-85
2022/06/11 05:44:23;;;;;;;4.05;1.70;;;;;;;19.99;65.72;101433.19;5021317;28;20041;-86
2022/06/11 05:46:54;;;;;;;6.43;2.22;;;;;;;19.99;66.13;101440.31;5012236;28;20157;-85
2022/06/11 05:49:37;;;;;;;1.75;1.60;;;;;;;19.92;66.50;101434.34;5041009;28;20053;-85
2022/06/11 05:52:13;;;;;;;5.85;1.80;;;;;;;19.78;67.05;101436.59;5024094;28;20457;-86
2022/06/11 05:54:41;;;;;;;4.53;1.52;;;;;;;19.75;67.44;101436.69;5040359;28;20041;-85
2022/06/11 05:57:17;;;;;;;4.90;1.58;;;;;;;19.74;67.65;101435.81;5025388;28;20064;-85
2022/06/11 05:59:51;;;;;;;4.90;1.50;;;;;;;19.73;67.67;101433.22;5032227;28;20046;-85
2022/06/11 06:02:32;;;;;;;5.22;1.75;;;;;;;19.81;67.63;101440.03;5014698;28;20049;-87
2022/06/11 06:05:11;;;;;;;3.75;2.00;;;;;;;19.91;67.49;101424.63;5027435;28;20049;-86
2022/06/11 06:07:41;;;;;;;3.42;2.00;;;;;;;19.96;67.53;101437.78;5026499;28;20112;-85
2022/06/11 06:10:08;;;;;;;4.57;2.00;;;;;;;19.93;67.66;101438.75;5022147;28;20402;-86
2022/06/11 06:12:39;;;;;;;4.38;1.83;;;;;;;19.83;68.11;101440.84;5010115;28;21721;-86
2022/06/11 06:15:17;;;;;;;3.33;1.70;;;;;;;19.83;68.48;101447.97;5024695;28;20041;-87
2022/06/11 06:17:46;;;;;;;4.60;1.70;;;;;;;19.96;67.98;101451.91;5029875;28;20396;-85
2022/06/11 06:20:24;;;;;;;3.95;2.05;;;;;;;20.11;67.70;101449.63;5035887;28;20079;-85
2022/06/11 06:22:55;;;;;;;4.55;2.20;;;;;;;20.26;67.17;101453.50;5030835;28;20057;-86
2022/06/11 06:25:23;;;;;;;6.00;2.50;;;;;;;20.24;67.32;101450.91;5042916;28;20046;-85
2022/06/11 06:27:50;;;;;;;6.28;2.53;;;;;;;20.17;67.99;101457.38;5030822;28;20045;-85
2022/06/11 06:30:17;;;;;;;6.80;3.08;;;;;;;20.09;68.49;101460.31;5029950;28;20698;-86
2022/06/11 06:32:43;;;;;;;4.68;2.63;;;;;;;20.07;69.37;101462.16;5010788;28;20052;-86
2022/06/11 06:35:10;;;;;;;8.05;3.40;;;;;;;20.15;69.16;101461.88;5018582;28;20046;-86
2022/06/11 06:37:42;;;;;;;13.43;3.20;;;;;;;20.37;68.99;101466.41;5022084;28;20060;-86
2022/06/11 06:40:09;;;;;;;8.13;4.43;;;;;;;20.60;67.56;101457.59;5024917;28;20041;-86
2022/06/11 06:42:36;;;;;;;5.45;4.20;;;;;;;20.80;67.21;101459.50;5024497;28;20160;-87
2022/06/11 06:45:03;;;;;;;9.05;4.22;;;;;;;20.96;66.87;101463.28;5010776;28;20077;-86
2022/06/11 06:47:45;;;;;;;7.43;4.85;;;;;;;21.11;66.08;101466.25;5021374;28;20097;-85
2022/06/11 06:50:13;;;;;;;8.25;4.93;;;;;;;20.97;66.52;101472.13;5006064;28;20169;-86
2022/06/11 06:52:41;;;;;;;9.35;4.63;;;;;;;20.91;66.83;101470.59;5020543;28;20042;-86
2022/06/11 06:55:08;;;;;;;12.82;6.35;;;;;;;20.85;66.51;101467.31;5023704;28;20037;-84
2022/06/11 06:57:35;;;;;;;6.43;4.20;;;;;;;20.75;65.63;101467.63;5036978;28;20047;-85
2022/06/11 07:00:05;;;;;;;5.70;4.78;;;;;;;20.70;65.79;101474.06;5025714;28;20041;-84
2022/06/11 07:02:31;;;;;;;7.72;4.28;;;;;;;20.57;66.28;101477.19;5012127;28;20508;-85
2022/06/11 07:04:59;;;;;;;5.82;4.28;;;;;;;20.48;66.40;101480.16;5012365;28;20532;-85
2022/06/11 07:07:26;;;;;;;5.90;3.75;;;;;;;20.38;66.74;101478.78;5021656;28;20049;-85
2022/06/11 07:09:59;;;;;;;7.05;3.40;;;;;;;20.27;67.24;101476.50;5023158;28;20092;-85
2022/06/11 07:12:28;;;;;;;5.18;3.60;;;;;;;20.11;67.84;101474.41;5025507;28;20046;-87
2022/06/11 07:14:55;;;;;;;4.82;3.50;;;;;;;20.04;68.17;101477.34;5023519;28;20061;-86
2022/06/11 07:17:22;;;;;;;4.05;3.45;;;;;;;20.01;67.75;101480.97;5012627;28;20454;-87
2022/06/11 07:20:03;;;;;;;2.92;2.17;;;;;;;20.11;66.43;101479.72;5016057;28;20120;-86
2022/06/11 07:22:38;;;;;;;2.38;2.17;;;;;;;20.23;66.25;101478.41;5022058;28;20053;-86
2022/06/11 07:25:07;;;;;;;3.92;2.22;;;;;;;20.42;64.75;101481.28;5019288;28;20038;-86
2022/06/11 07:27:45;;;;;;;3.50;2.70;;;;;;;20.55;64.48;101479.03;5023070;28;20057;-86
2022/06/11 07:30:15;;;;;;;4.40;2.78;;;;;;;20.91;62.66;101475.91;5024561;28;20396;-87
2022/06/11 07:32:46;;;;;;;2.95;1.67;;;;;;;21.51;61.00;101482.41;5026347;28;20068;-86
2022/06/11 07:35:16;;;;;;;4.00;1.90;;;;;;;22.13;57.96;101476.19;5024262;28;20049;-85
2022/06/11 07:37:44;;;;;;;4.78;2.40;;;;;;;22.50;56.02;101472.81;5021079;28;20048;-86
2022/06/11 07:40:12;;;;;;;5.07;2.20;;;;;;;22.69;55.07;101472.84;5026250;28;20137;-87
2022/06/11 07:42:39;;;;;;;3.90;2.00;;;;;;;22.63;55.71;101480.19;5007975;28;20049;-83
2022/06/11 07:45:07;;;;;;;4.28;2.40;;;;;;;22.78;55.07;101475.94;5012030;28;20037;-86
2022/06/11 07:50:18;;;;;;;2.20;1.42;;;;;;;23.45;52.46;101467.41;5015397;28;20444;-86
2022/06/11 07:52:45;;;;;;;4.70;1.55;;;;;;;23.81;50.72;101466.47;5003976;28;20594;-84
2022/06/11 07:55:12;;;;;;;3.75;1.70;;;;;;;24.10;51.07;101475.66;5020034;28;20170;-86
2022/06/11 07:57:39;;;;;;;1.60;0.60;;;;;;;24.61;48.27;101477.41;5011759;28;20042;-85
2022/06/11 08:00:11;;;;;;;1.45;1.00;;;;;;;25.19;46.60;101467.94;5029121;28;20056;-87
2022/06/11 08:02:38;;;;;;;0.63;0.52;;;;;;;25.84;44.18;101468.66;5010463;28;20073;-87
2022/06/11 08:05:08;;;;;;;0.70;0.70;;;;;;;26.24;43.72;101469.81;5017991;28;20057;-88
2022/06/11 08:07:35;;;;;;;1.20;0.57;;;;;;;26.55;42.73;101475.03;5009785;28;20057;-86
2022/06/11 08:10:03;;;;;;;1.10;0.57;;;;;;;26.63;42.05;101479.94;5028196;28;20135;-88
2022/06/11 08:12:32;;;;;;;0.63;0.63;;;;;;;26.65;42.75;101483.38;5026666;28;20050;-86
2022/06/11 08:14:59;;;;;;;2.17;0.75;;;;;;;27.06;41.73;101479.84;5022893;28;20072;-88
2022/06/11 08:17:29;;;;;;;3.22;0.65;;;;;;;27.46;40.49;101476.41;5013618;28;20421;-86
2022/06/11 08:19:56;;;;;;;0.95;0.65;;;;;;;27.49;40.16;101468.97;5025941;28;20069;-87
2022/06/11 08:22:23;;;;;;;1.55;0.80;;;;;;;26.96;41.08;101478.72;5016989;28;20512;-86
2022/06/11 08:24:51;;;;;;;1.35;0.70;;;;;;;26.70;41.98;101479.44;5006791;28;20038;-84
2022/06/11 08:27:18;;;;;;;2.58;0.95;;;;;;;26.95;41.87;101477.88;5006978;28;20053;-84
2022/06/11 08:29:48;;;;;;;2.67;0.60;;;;;;;27.36;40.36;101468.03;5022774;28;20107;-82
2022/06/11 08:32:15;;;;;;;0.85;0.32;;;;;;;27.35;40.07;101464.50;5021641;28;20052;-82
2022/06/11 08:34:46;;;;;;;1.30;0.47;;;;;;;27.20;40.28;101473.59;5022406;28;20046;-85
2022/06/11 08:37:15;;;;;;;2.05;0.57;;;;;;;27.70;39.02;101471.16;5004618;28;20049;-83
2022/06/11 08:39:43;;;;;;;1.42;0.50;;;;;;;27.93;38.68;101476.78;5000934;28;20064;-86
2022/06/11 08:42:38;;;;;;;2.42;1.10;;;;;;;28.14;38.49;101472.59;5018430;28;20045;-84
2022/06/11 08:45:20;;;;;;;1.88;0.65;;;;;;;28.32;38.32;101470.44;5009387;28;20045;-87
2022/06/11 08:47:53;;;;;;;1.38;0.63;;;;;;;28.53;36.79;101475.25;5010482;28;20076;-83
2022/06/11 08:50:36;;;;;;;0.63;0.63;;;;;;;28.33;37.47;101477.56;5010527;28;20045;-84
2022/06/11 08:53:06;;;;;;;1.02;0.50;;;;;;;28.66;37.41;101472.56;5029410;28;20084;-82
2022/06/11 08:55:41;;;;;;;0.95;0.70;;;;;;;29.28;36.06;101476.13;5044638;28;20116;-85
2022/06/11 08:58:35;;;;;;;0.73;0.47;;;;;;;30.03;35.67;101467.66;5022659;28;20054;-84
2022/06/11 09:01:26;;;;;;;1.85;0.57;;;;;;;30.70;33.74;101470.50;5013682;28;20057;-81
2022/06/11 09:04:12;;;;;;;1.55;0.45;;;;;;;30.90;33.53;101484.22;5030763;28;20049;-83
2022/06/11 09:06:57;;;;;;;0.85;0.30;;;;;;;30.46;33.08;101471.50;5023552;28;20057;-84
2022/06/11 09:09:40;;;;;;;0.77;0.47;;;;;;;29.74;34.27;101472.63;5026064;28;20041;-87
2022/06/11 09:12:33;;;;;;;1.40;0.50;;;;;;;30.15;33.51;101473.91;5037792;28;20168;-86
2022/06/11 09:16:05;;;;;;;0.38;0.30;;;;;;;29.79;34.24;101470.44;5032261;28;20080;-85
2022/06/11 09:18:57;;;;;;;2.47;0.68;;;;;;;29.22;33.31;101469.34;5001432;28;20391;-85
2022/06/11 09:21:54;;;;;;;0.47;0.23;;;;;;;28.01;36.32;101474.41;5026822;28;20047;-85
2022/06/11 09:24:53;;;;;;;0.35;0.35;;;;;;;28.31;36.21;101478.63;5037241;28;20188;-83
2022/06/11 09:27:31;;;;;;;1.35;0.30;;;;;;;28.40;36.06;101480.66;5024676;28;20053;-84
2022/06/11 09:30:10;;;;;;;0.98;0.32;;;;;;;29.20;33.37;101474.84;5023279;28;20081;-83
2022/06/11 09:32:46;;;;;;;0.73;0.20;;;;;;;29.44;32.90;101476.69;5024892;28;20045;-84
2022/06/11 09:35:20;;;;;;;2.58;0.22;;;;;;;28.45;34.23;101481.19;5026263;28;20049;-84
2022/06/11 09:38:17;;;;;;;3.95;0.75;;;;;;;28.57;34.52;101476.75;5020758;28;20057;-85
2022/06/11 09:40:51;;;;;;;0.93;0.30;;;;;;;28.85;34.21;101477.47;5029474;28;20048;-86
2022/06/11 09:43:38;;;;;;;1.58;0.57;;;;;;;28.97;33.45;101476.56;5023201;28;20038;-87
2022/06/11 09:46:19;;;;;;;0.43;0.30;;;;;;;27.92;35.35;101486.66;5041527;28;20096;-86
2022/06/11 09:49:26;;;;;;;1.65;0.30;;;;;;;27.51;36.20;101491.25;5020655;28;20046;-84
2022/06/11 09:52:10;;;;;;;1.02;0.45;;;;;;;26.87;36.73;101483.75;5012453;28;20053;-85
2022/06/11 09:54:53;;;;;;;2.45;0.65;;;;;;;26.17;38.33;101489.06;5023520;28;20033;-85
2022/06/11 09:58:01;;;;;;;0.85;0.20;;;;;;;25.64;40.23;101485.94;5039636;28;20046;-84
2022/06/11 10:00:39;;;;;;;0.57;0.57;;;;;;;26.28;39.34;101494.59;5013040;28;20041;-86
2022/06/11 10:03:36;;;;;;;1.50;0.50;;;;;;;27.90;36.66;101488.63;5038087;28;20049;-86
2022/06/11 10:06:18;;;;;;;1.33;0.40;;;;;;;28.32;35.24;101483.06;5022318;28;20046;-87
2022/06/11 10:09:14;;;;;;;0.95;0.40;;;;;;;27.90;36.50;101481.41;5014258;28;20049;-85
2022/06/11 10:12:24;;;;;;;1.20;0.40;;;;;;;27.94;36.36;101487.44;5008340;28;20053;-85
2022/06/11 10:15:15;;;;;;;1.80;0.55;;;;;;;27.69;37.06;101486.44;5011999;28;20065;-86
2022/06/11 10:18:00;;;;;;;2.13;0.60;;;;;;;27.95;36.75;101491.88;5029386;28;20116;-85
2022/06/11 10:20:34;;;;;;;0.85;0.60;;;;;;;29.26;34.81;101488.84;5017039;28;20120;-86
2022/06/11 10:23:13;;;;;;;1.40;0.30;;;;;;;30.06;32.57;101481.91;5050990;28;20104;-83
2022/06/11 10:26:22;;;;;;;0.17;0.17;;;;;;;28.61;34.43;101493.56;5049353;28;20531;-86
2022/06/11 10:29:08;;;;;;;1.35;0.38;;;;;;;27.65;36.44;101489.44;5034287;28;20045;-84
2022/06/11 10:31:55;;;;;;;0.82;0.30;;;;;;;28.69;34.75;101489.38;5035459;28;20124;-86
2022/06/11 10:34:26;;;;;;;0.45;0.45;;;;;;;29.98;33.51;101486.06;5018074;28;20049;-85
2022/06/11 10:37:31;;;;;;;0.63;0.40;;;;;;;31.95;30.25;101488.97;5016411;28;20045;-86
2022/06/11 10:40:32;;;;;;;0.55;0.20;;;;;;;33.21;28.42;101485.00;5031092;28;20078;-87
2022/06/11 10:43:29;;;;;;;1.70;0.55;;;;;;;33.66;28.58;101477.28;5025012;28;20049;-83
2022/06/11 10:45:57;;;;;;;0.43;0.38;;;;;;;34.76;27.15;101481.22;5026233;28;20120;-87
2022/06/11 10:48:26;;;;;;;1.17;0.30;;;;;;;35.81;24.99;101495.13;5029912;28;20056;-85
2022/06/11 10:50:53;;;;;;;0.50;0.50;;;;;;;34.81;25.35;101491.63;5010188;28;20049;-85
2022/06/11 10:53:23;;;;;;;1.52;0.52;;;;;;;34.11;26.26;101501.09;5038497;28;20068;-85
2022/06/11 10:56:19;;;;;;;0.40;0.40;;;;;;;33.52;26.57;101482.16;5039864;28;20120;-84
2022/06/11 10:59:33;;;;;;;1.50;0.90;;;;;;;33.36;27.03;101493.59;5015316;28;20396;-87
2022/06/11 11:02:18;;;;;;;1.73;0.52;;;;;;;34.58;25.29;101500.19;5041297;28;20049;-86
2022/06/11 11:05:10;;;;;;;1.55;0.40;;;;;;;35.14;24.98;101491.97;5031122;28;20053;-87
2022/06/11 11:08:01;;;;;;;0.60;0.60;;;;;;;34.09;25.79;101489.50;5023163;28;20049;-88
2022/06/11 11:10:37;;;;;;;1.30;0.50;;;;;;;34.20;26.56;101489.31;5025747;28;20144;-86
2022/06/11 11:13:32;;;;;;;1.92;0.50;;;;;;;33.71;26.46;101489.41;5040842;28;20050;-87
2022/06/11 11:16:15;;;;;;;0.80;0.40;;;;;;;34.37;26.48;101481.44;5011913;28;20400;-87
2022/06/11 11:18:54;;;;;;;0.40;0.40;;;;;;;34.68;26.06;101495.56;5025031;28;20049;-85
2022/06/11 11:22:07;;;;;;;0.40;0.40;;;;;;;32.96;27.53;101491.84;5038677;28;20510;-86
2022/06/11 11:24:52;;;;;;;0.52;0.30;;;;;;;31.74;29.45;101497.94;5022920;28;20060;-86
2022/06/11 11:27:33;;;;;;;0.95;0.60;;;;;;;30.75;30.69;101489.88;5009492;28;20436;-86
2022/06/11 11:30:20;;;;;;;1.13;0.80;;;;;;;32.03;29.77;101481.03;5024193;28;20496;-87
2022/06/11 11:33:31;;;;;;;0.85;0.60;;;;;;;34.62;26.20;101488.00;5019470;28;20556;-83
2022/06/11 11:36:15;;;;;;;1.23;0.70;;;;;;;34.47;26.12;101487.66;5037991;28;20043;-86
2022/06/11 11:38:43;;;;;;;1.35;0.43;;;;;;;32.68;28.33;101494.28;5023573;28;20097;-87
2022/06/11 11:41:26;;;;;;;1.35;0.77;;;;;;;31.83;29.17;101499.84;5019228;28;20057;-86
2022/06/11 11:43:57;;;;;;;;;;;;;;;33.08;27.12;101487.97;5014852;28;20072;-84
2022/06/11 11:46:34;;;;;;;0.93;0.68;;;;;;;33.87;26.71;101478.00;5042465;28;19952;-85
2022/06/11 11:49:05;;;;;;;0.75;0.75;;;;;;;35.17;25.54;101497.97;5009652;28;20034;-85
2022/06/11 11:51:37;;;;;;;0.55;0.43;;;;;;;36.53;24.34;101485.84;5020584;28;20141;-86
2022/06/11 11:55:11;;;;;;;0.88;0.40;;;;;;;37.53;22.73;101476.84;5012275;28;20076;-86
2022/06/11 11:57:39;;;;;;;1.65;0.50;;;;;;;38.04;22.03;101479.34;4997940;28;20050;-86
2022/06/11 12:00:31;;;;;;;0.75;0.75;;;;;;;37.03;23.02;101485.00;5022285;28;20079;-85
2022/06/11 12:03:10;;;;;;;0.57;0.50;;;;;;;36.51;22.51;101485.19;5002127;28;20057;-84
2022/06/11 12:05:59;;;;;;;0.35;0.35;;;;;;;35.02;23.94;101492.22;5004843;28;20539;-84
2022/06/11 12:08:33;;;;;;;0.90;0.45;;;;;;;32.23;26.95;101491.97;5016299;28;20108;-84
2022/06/11 12:11:01;;;;;;;1.13;0.30;;;;;;;32.14;28.04;101490.94;5001862;28;20057;-85